Time;durP1;ratioP1;P1;durP2;ratioP2;P2;SDS_P1;SDS_P2;PMS_P1;PMS_P2;Temp;Humidity;BMP_temperature;BMP_pressure;BME280_temperature;BME280_humidity;BME280_pressure;Samples;Min_cycle;Max_cycle;Signal;HPM_P1;HPM_P2
2022/12/03 00:00:08;;;;;;;212.55;96.07;;;;;;;;;;1041962;28;20665;-76
2022/12/03 00:00:39;;;;;;;210.63;94.30;;;;;;;;;;1040798;28;20009;-76
2022/12/03 00:01:09;;;;;;;210.63;95.32;;;;;;;;;;1039508;28;20116;-76
2022/12/03 00:01:40;;;;;;;230.13;96.40;;;;;;;;;;1041762;28;20025;-76
2022/12/03 00:02:10;;;;;;;235.95;101.55;;;;;;;;;;1042726;28;20029;-76
2022/12/03 00:02:41;;;;;;;228.07;103.40;;;;;;;;;;1042902;28;20028;-76
2022/12/03 00:03:11;;;;;;;239.02;99.30;;;;;;;;;;1041977;28;20025;-76
2022/12/03 00:03:42;;;;;;;252.05;108.97;;;;;;;;;;1041507;28;20025;-76
2022/12/03 00:04:13;;;;;;;253.63;106.72;;;;;;;;;;1041664;28;20021;-76
2022/12/03 00:04:43;;;;;;;247.82;107.03;;;;;;;;;;1041059;28;20029;-76
2022/12/03 00:05:14;;;;;;;234.57;107.15;;;;;;;;;;1041820;28;20021;-76
2022/12/03 00:05:44;;;;;;;228.48;110.68;;;;;;;;;;1041405;28;20022;-76
2022/12/03 00:06:16;;;;;;;254.55;110.63;;;;;;;;;;1041683;28;20028;-76
2022/12/03 00:06:46;;;;;;;247.45;107.43;;;;;;;;;;1041646;28;20495;-76
2022/12/03 00:07:17;;;;;;;245.57;109.35;;;;;;;;;;1045297;28;20072;-76
2022/12/03 00:07:48;;;;;;;248.30;110.20;;;;;;;;;;1043787;28;20033;-76
2022/12/03 00:08:18;;;;;;;262.20;109.15;;;;;;;;;;1037821;28;20037;-76
2022/12/03 00:08:49;;;;;;;249.85;109.68;;;;;;;;;;1038092;28;20143;-76
2022/12/03 00:09:19;;;;;;;235.65;106.68;;;;;;;;;;1038955;28;20083;-76
2022/12/03 00:09:50;;;;;;;237.98;103.00;;;;;;;;;;1039024;28;20033;-76
2022/12/03 00:10:20;;;;;;;245.70;105.05;;;;;;;;;;1040581;28;20023;-76
2022/12/03 00:10:51;;;;;;;227.77;100.88;;;;;;;;;;1042367;28;20030;-76
2022/12/03 00:11:22;;;;;;;251.27;105.07;;;;;;;;;;1042673;28;20166;-76
2022/12/03 00:11:52;;;;;;;232.30;94.78;;;;;;;;;;1041940;28;20017;-76
2022/12/03 00:12:23;;;;;;;199.18;91.18;;;;;;;;;;1037971;28;20030;-76
2022/12/03 00:12:53;;;;;;;224.30;99.95;;;;;;;;;;1038016;28;20026;-76
2022/12/03 00:13:24;;;;;;;235.45;103.03;;;;;;;;;;1041564;28;20021;-76
2022/12/03 00:13:54;;;;;;;220.13;94.68;;;;;;;;;;1042092;28;20029;-76
2022/12/03 00:14:25;;;;;;;214.55;96.00;;;;;;;;;;1040809;28;20025;-76
2022/12/03 00:14:55;;;;;;;229.35;97.95;;;;;;;;;;1041740;28;20025;-76
2022/12/03 00:15:26;;;;;;;217.30;95.70;;;;;;;;;;1040881;28;20384;-76
2022/12/03 00:15:56;;;;;;;217.40;92.35;;;;;;;;;;1041946;28;20104;-76
2022/12/03 00:16:27;;;;;;;219.50;91.13;;;;;;;;;;1040750;28;20056;-76
2022/12/03 00:16:57;;;;;;;217.38;93.80;;;;;;;;;;1039881;28;20112;-76
2022/12/03 00:17:28;;;;;;;220.93;91.32;;;;;;;;;;1041894;28;20053;-76
2022/12/03 00:17:59;;;;;;;224.82;93.93;;;;;;;;;;1041774;28;20056;-76
2022/12/03 00:18:29;;;;;;;221.65;93.82;;;;;;;;;;1040528;28;20057;-76
2022/12/03 00:19:00;;;;;;;223.68;92.95;;;;;;;;;;1040014;28;20029;-76
2022/12/03 00:19:30;;;;;;;213.02;89.40;;;;;;;;;;1041764;28;20017;-76
2022/12/03 00:20:01;;;;;;;192.43;87.05;;;;;;;;;;1040747;28;20021;-76
2022/12/03 00:20:31;;;;;;;201.57;89.93;;;;;;;;;;1042232;28;20409;-76
2022/12/03 00:21:02;;;;;;;191.73;87.80;;;;;;;;;;1041573;28;20021;-76
2022/12/03 00:21:33;;;;;;;198.85;90.22;;;;;;;;;;1043883;28;20660;-76
2022/12/03 00:22:03;;;;;;;203.88;88.93;;;;;;;;;;1039962;28;20029;-76
2022/12/03 00:22:34;;;;;;;198.32;88.20;;;;;;;;;;1040094;28;20013;-76
2022/12/03 00:23:05;;;;;;;204.75;91.70;;;;;;;;;;1038538;28;20040;-76
2022/12/03 00:23:35;;;;;;;207.68;88.57;;;;;;;;;;1041113;28;20416;-76
2022/12/03 00:24:06;;;;;;;203.75;87.85;;;;;;;;;;1041870;28;20076;-76
2022/12/03 00:24:36;;;;;;;195.50;86.57;;;;;;;;;;1041977;28;20075;-76
2022/12/03 00:25:07;;;;;;;207.57;88.63;;;;;;;;;;1039665;28;20025;-76
2022/12/03 00:25:38;;;;;;;215.70;90.38;;;;;;;;;;1039688;28;20057;-76
2022/12/03 00:26:08;;;;;;;210.38;84.53;;;;;;;;;;1039949;28;20047;-76
2022/12/03 00:26:39;;;;;;;199.27;87.20;;;;;;;;;;1040111;28;20064;-76
2022/12/03 00:27:09;;;;;;;185.10;85.75;;;;;;;;;;1040227;28;20025;-76
2022/12/03 00:27:40;;;;;;;197.93;85.50;;;;;;;;;;1041943;28;20025;-76
2022/12/03 00:28:11;;;;;;;174.27;79.97;;;;;;;;;;1042271;28;20022;-76
2022/12/03 00:28:41;;;;;;;184.93;84.75;;;;;;;;;;1041353;28;20040;-76
2022/12/03 00:29:12;;;;;;;169.02;71.00;;;;;;;;;;1039721;28;20488;-76
2022/12/03 00:29:42;;;;;;;185.60;76.18;;;;;;;;;;1040439;28;20037;-76
2022/12/03 00:30:13;;;;;;;184.07;77.10;;;;;;;;;;1039629;28;20029;-76
2022/12/03 00:30:44;;;;;;;187.57;80.50;;;;;;;;;;1039086;28;20063;-76
2022/12/03 00:31:15;;;;;;;174.85;82.18;;;;;;;;;;1043899;28;20035;-76
2022/12/03 00:31:45;;;;;;;172.68;78.13;;;;;;;;;;1038968;28;20880;-76
2022/12/03 00:32:16;;;;;;;161.88;73.38;;;;;;;;;;1038809;28;20505;-76
2022/12/03 00:32:46;;;;;;;175.35;77.70;;;;;;;;;;1038693;28;20112;-76
2022/12/03 00:33:17;;;;;;;185.23;84.53;;;;;;;;;;1040643;28;20071;-76
2022/12/03 00:33:48;;;;;;;185.45;76.68;;;;;;;;;;1044586;28;20020;-76
2022/12/03 00:34:18;;;;;;;166.85;77.93;;;;;;;;;;1040583;28;20036;-76
2022/12/03 00:34:49;;;;;;;163.93;76.57;;;;;;;;;;1040360;28;20028;-76
2022/12/03 00:35:19;;;;;;;169.55;73.28;;;;;;;;;;1041536;28;20017;-76
2022/12/03 00:35:50;;;;;;;183.55;76.80;;;;;;;;;;1040272;28;20565;-76
2022/12/03 00:36:20;;;;;;;159.73;72.50;;;;;;;;;;1039930;28;20075;-76
2022/12/03 00:36:51;;;;;;;149.88;67.63;;;;;;;;;;1041554;28;20025;-76
2022/12/03 00:37:22;;;;;;;150.98;70.53;;;;;;;;;;1040122;28;20029;-76
2022/12/03 00:37:53;;;;;;;118.60;56.25;;;;;;;;;;1040206;28;20510;-76
2022/12/03 00:38:24;;;;;;;143.80;66.90;;;;;;;;;;1041560;28;20512;-76
2022/12/03 00:38:54;;;;;;;140.10;61.67;;;;;;;;;;1041639;28;20025;-76
2022/12/03 00:39:25;;;;;;;151.85;65.28;;;;;;;;;;1041492;28;20446;-76
2022/12/03 00:39:56;;;;;;;153.25;59.65;;;;;;;;;;1040303;28;20491;-76
2022/12/03 00:40:26;;;;;;;146.73;62.70;;;;;;;;;;1040768;28;20026;-76
2022/12/03 00:40:57;;;;;;;127.55;59.38;;;;;;;;;;1044398;28;20041;-76
2022/12/03 00:41:27;;;;;;;129.48;60.95;;;;;;;;;;1043977;28;20080;-76
2022/12/03 00:41:58;;;;;;;133.43;59.33;;;;;;;;;;1044147;28;20024;-76
2022/12/03 00:42:29;;;;;;;110.30;55.03;;;;;;;;;;1041730;28;20029;-76
2022/12/03 00:42:59;;;;;;;126.40;57.22;;;;;;;;;;1040121;28;20022;-76
2022/12/03 00:43:30;;;;;;;114.68;54.20;;;;;;;;;;1040463;28;20029;-76
2022/12/03 00:44:00;;;;;;;129.52;52.35;;;;;;;;;;1044865;28;20009;-76
2022/12/03 00:44:31;;;;;;;106.30;50.65;;;;;;;;;;1038477;28;20017;-76
2022/12/03 00:45:02;;;;;;;108.25;50.28;;;;;;;;;;1037674;28;20469;-76
2022/12/03 00:45:32;;;;;;;92.68;48.03;;;;;;;;;;1040185;28;20400;-76
2022/12/03 00:46:03;;;;;;;106.50;47.25;;;;;;;;;;1041450;28;20032;-76
2022/12/03 00:46:33;;;;;;;113.57;53.45;;;;;;;;;;1041849;28;20017;-76
2022/12/03 00:47:04;;;;;;;113.25;51.78;;;;;;;;;;1041562;28;20029;-76
2022/12/03 00:47:34;;;;;;;107.15;53.42;;;;;;;;;;1041756;28;20037;-76
2022/12/03 00:48:05;;;;;;;118.43;53.78;;;;;;;;;;1039399;28;20025;-76
2022/12/03 00:48:35;;;;;;;119.68;49.33;;;;;;;;;;1041882;28;20017;-76
2022/12/03 00:49:06;;;;;;;106.07;52.83;;;;;;;;;;1039048;28;20018;-76
2022/12/03 00:49:37;;;;;;;105.93;49.97;;;;;;;;;;1038196;28;20032;-76
2022/12/03 00:50:08;;;;;;;97.90;46.75;;;;;;;;;;1037824;28;20065;-76
2022/12/03 00:50:38;;;;;;;87.85;47.67;;;;;;;;;;1040060;28;20577;-76
2022/12/03 00:51:09;;;;;;;95.75;45.80;;;;;;;;;;1041105;28;20033;-76
2022/12/03 00:51:39;;;;;;;105.75;47.30;;;;;;;;;;1040690;28;20018;-76
2022/12/03 00:52:10;;;;;;;105.78;46.10;;;;;;;;;;1039769;28;20059;-76
2022/12/03 00:52:40;;;;;;;91.38;46.58;;;;;;;;;;1039938;28;20029;-76
2022/12/03 00:53:11;;;;;;;102.45;49.47;;;;;;;;;;1039537;28;20518;-76
2022/12/03 00:53:41;;;;;;;104.30;49.47;;;;;;;;;;1037828;28;20021;-76
2022/12/03 00:54:12;;;;;;;109.28;46.60;;;;;;;;;;1038689;28;20026;-76
2022/12/03 00:54:43;;;;;;;100.68;44.72;;;;;;;;;;1043130;28;20073;-76
2022/12/03 00:55:13;;;;;;;102.63;46.30;;;;;;;;;;1037685;28;20061;-76
2022/12/03 00:55:44;;;;;;;88.80;43.60;;;;;;;;;;1041429;28;20036;-76
2022/12/03 00:56:14;;;;;;;75.88;39.95;;;;;;;;;;1041445;28;20152;-76
2022/12/03 00:56:45;;;;;;;68.63;38.15;;;;;;;;;;1040167;28;20025;-76
2022/12/03 00:57:15;;;;;;;77.80;40.38;;;;;;;;;;1041554;28;20030;-76
2022/12/03 00:57:46;;;;;;;82.95;38.60;;;;;;;;;;1041966;28;20081;-76
2022/12/03 00:58:17;;;;;;;84.35;41.63;;;;;;;;;;1042362;28;20075;-76
2022/12/03 00:58:47;;;;;;;80.43;36.83;;;;;;;;;;1043994;28;20075;-76
2022/12/03 00:59:18;;;;;;;74.88;36.80;;;;;;;;;;1043641;28;20025;-76
2022/12/03 00:59:48;;;;;;;73.53;37.30;;;;;;;;;;1041531;28;20155;-76
2022/12/03 01:00:23;;;;;;;83.82;38.40;;;;;;;;;;1041453;28;20030;-76
2022/12/03 01:00:53;;;;;;;84.45;38.33;;;;;;;;;;1042660;28;20109;-76
2022/12/03 01:01:24;;;;;;;88.38;39.13;;;;;;;;;;1041805;28;20082;-76
2022/12/03 01:01:55;;;;;;;85.95;39.22;;;;;;;;;;1040655;28;20029;-76
2022/12/03 01:02:26;;;;;;;71.05;35.92;;;;;;;;;;1040125;28;20026;-76
2022/12/03 01:02:56;;;;;;;77.22;38.25;;;;;;;;;;1037155;28;20021;-76
2022/12/03 01:03:28;;;;;;;69.07;34.60;;;;;;;;;;1037888;28;20026;-76
2022/12/03 01:03:58;;;;;;;80.93;39.00;;;;;;;;;;1037916;28;20021;-76
2022/12/03 01:04:29;;;;;;;78.70;38.38;;;;;;;;;;1037976;28;20489;-76
2022/12/03 01:04:59;;;;;;;81.18;39.30;;;;;;;;;;1040053;28;20052;-76
2022/12/03 01:05:30;;;;;;;80.30;36.33;;;;;;;;;;1038054;28;20069;-76
2022/12/03 01:06:00;;;;;;;79.60;40.28;;;;;;;;;;1037697;28;20448;-76
2022/12/03 01:06:31;;;;;;;87.18;40.65;;;;;;;;;;1038001;28;20021;-76
2022/12/03 01:07:02;;;;;;;79.38;40.42;;;;;;;;;;1037632;28;20026;-76
2022/12/03 01:07:32;;;;;;;72.93;38.10;;;;;;;;;;1037800;28;20024;-76
2022/12/03 01:08:03;;;;;;;73.25;36.85;;;;;;;;;;1043399;28;20039;-76
2022/12/03 01:08:33;;;;;;;82.90;39.13;;;;;;;;;;1043776;28;20023;-76
2022/12/03 01:09:04;;;;;;;87.18;39.15;;;;;;;;;;1036541;28;20025;-76
2022/12/03 01:09:35;;;;;;;77.28;39.17;;;;;;;;;;1038176;28;20017;-76
2022/12/03 01:10:06;;;;;;;76.32;37.33;;;;;;;;;;1040851;28;20056;-76
2022/12/03 01:10:36;;;;;;;80.80;37.85;;;;;;;;;;1041405;28;20021;-76
2022/12/03 01:11:36;;;;;;;85.07;40.00;;;;;;;;;;1041638;28;20104;-76
2022/12/03 01:11:57;;;;;;;73.45;38.80;;;;;;;;;;1039698;28;20033;-77
2022/12/03 01:12:28;;;;;;;87.10;38.67;;;;;;;;;;1039986;28;20057;-77
2022/12/03 01:12:58;;;;;;;87.35;38.92;;;;;;;;;;1039720;28;20013;-77
2022/12/03 01:13:29;;;;;;;86.28;38.67;;;;;;;;;;1041367;28;20481;-76
2022/12/03 01:13:59;;;;;;;83.30;41.38;;;;;;;;;;1039505;28;20032;-76
2022/12/03 01:14:30;;;;;;;88.28;41.53;;;;;;;;;;1039840;28;20043;-76
2022/12/03 01:15:01;;;;;;;92.80;45.15;;;;;;;;;;1039674;28;20056;-76
2022/12/03 01:15:31;;;;;;;92.07;46.85;;;;;;;;;;1039695;28;20017;-76
2022/12/03 01:16:02;;;;;;;107.22;48.38;;;;;;;;;;1040064;28;20108;-76
2022/12/03 01:16:32;;;;;;;88.85;45.05;;;;;;;;;;1042088;28;20504;-76
2022/12/03 01:17:03;;;;;;;105.93;48.22;;;;;;;;;;1043739;28;20025;-76
2022/12/03 01:17:33;;;;;;;116.63;46.25;;;;;;;;;;1043714;28;20417;-76
2022/12/03 01:18:04;;;;;;;94.55;45.90;;;;;;;;;;1042003;28;20022;-76
2022/12/03 01:18:35;;;;;;;122.03;54.30;;;;;;;;;;1044570;28;20448;-76
2022/12/03 01:19:06;;;;;;;109.32;52.20;;;;;;;;;;1040596;28;20022;-76
2022/12/03 01:19:36;;;;;;;119.68;52.50;;;;;;;;;;1037808;28;20041;-76
2022/12/03 01:20:08;;;;;;;97.78;46.00;;;;;;;;;;1039997;28;20026;-76
2022/12/03 01:20:38;;;;;;;95.80;48.75;;;;;;;;;;1037938;28;20026;-76
2022/12/03 01:21:09;;;;;;;96.85;48.78;;;;;;;;;;1037082;28;20133;-76
2022/12/03 01:21:40;;;;;;;105.63;48.55;;;;;;;;;;1034637;28;20022;-76
2022/12/03 01:22:11;;;;;;;91.25;44.80;;;;;;;;;;1030933;28;20582;-76
2022/12/03 01:22:41;;;;;;;86.68;43.45;;;;;;;;;;1033590;28;20073;-76
2022/12/03 01:23:12;;;;;;;93.40;41.65;;;;;;;;;;1033303;28;20693;-76
2022/12/03 01:23:42;;;;;;;106.07;47.88;;;;;;;;;;1040602;28;20496;-76
2022/12/03 01:24:13;;;;;;;102.45;48.58;;;;;;;;;;1043350;28;20603;-76
2022/12/03 01:24:44;;;;;;;98.50;51.05;;;;;;;;;;1042815;28;20192;-76
2022/12/03 01:25:15;;;;;;;112.88;47.65;;;;;;;;;;1041170;28;20027;-76
2022/12/03 01:25:45;;;;;;;110.25;46.85;;;;;;;;;;1040969;28;20036;-76
2022/12/03 01:26:16;;;;;;;113.82;49.17;;;;;;;;;;1037790;28;20026;-77
2022/12/03 01:26:46;;;;;;;108.57;50.03;;;;;;;;;;1038276;28;20567;-77
2022/12/03 01:27:17;;;;;;;95.22;47.38;;;;;;;;;;1038078;28;20072;-77
2022/12/03 01:27:47;;;;;;;101.72;46.00;;;;;;;;;;1040608;28;20116;-77
2022/12/03 01:28:18;;;;;;;115.53;49.40;;;;;;;;;;1039016;28;20084;-76
2022/12/03 01:28:49;;;;;;;103.05;46.25;;;;;;;;;;1035132;28;20555;-77
2022/12/03 01:29:19;;;;;;;97.93;46.83;;;;;;;;;;1033700;28;20030;-77
2022/12/03 01:29:50;;;;;;;97.15;46.25;;;;;;;;;;1035733;28;20117;-76
2022/12/03 01:30:20;;;;;;;101.63;44.53;;;;;;;;;;1036307;28;20113;-76
2022/12/03 01:32:29;;;;;;;86.10;45.67;;;;;;;;;;1042130;28;20025;-76
2022/12/03 01:32:59;;;;;;;112.90;48.42;;;;;;;;;;1038850;28;20033;-76
2022/12/03 01:33:30;;;;;;;102.88;46.20;;;;;;;;;;1040235;28;20029;-76
2022/12/03 01:34:01;;;;;;;97.88;47.22;;;;;;;;;;1036103;28;20056;-76
2022/12/03 01:34:31;;;;;;;91.63;42.20;;;;;;;;;;1037937;28;20415;-76
2022/12/03 01:35:02;;;;;;;85.47;41.60;;;;;;;;;;1032731;28;20121;-76
2022/12/03 01:35:33;;;;;;;93.00;43.50;;;;;;;;;;1032476;28;20060;-76
2022/12/03 01:36:04;;;;;;;106.95;45.97;;;;;;;;;;1034223;28;20505;-76
2022/12/03 01:36:34;;;;;;;96.60;46.90;;;;;;;;;;1035345;28;20453;-76
2022/12/03 01:37:05;;;;;;;85.55;41.72;;;;;;;;;;1037296;28;20425;-76
2022/12/03 01:37:35;;;;;;;102.75;44.88;;;;;;;;;;1042614;28;20394;-76
2022/12/03 01:38:06;;;;;;;87.63;44.05;;;;;;;;;;1042899;28;20389;-76
2022/12/03 01:38:37;;;;;;;90.93;43.83;;;;;;;;;;1039760;28;20029;-76
2022/12/03 01:39:07;;;;;;;86.07;43.63;;;;;;;;;;1041371;28;20093;-76
2022/12/03 01:39:38;;;;;;;83.93;45.97;;;;;;;;;;1039078;28;20029;-76
2022/12/03 01:40:10;;;;;;;93.13;44.05;;;;;;;;;;1034088;28;20565;-73
2022/12/03 01:40:41;;;;;;;95.18;45.67;;;;;;;;;;1035124;28;20124;-74
2022/12/03 01:41:11;;;;;;;91.88;45.20;;;;;;;;;;1038760;28;20018;-76
2022/12/03 01:41:42;;;;;;;88.60;45.25;;;;;;;;;;1041436;28;20030;-75
2022/12/03 01:42:18;;;;;;;85.35;41.33;;;;;;;;;;1041847;28;20022;-75
2022/12/03 01:42:50;;;;;;;84.00;44.03;;;;;;;;;;1033517;28;20026;-75
2022/12/03 01:43:21;;;;;;;81.78;41.60;;;;;;;;;;1033203;28;20029;-75
2022/12/03 01:43:52;;;;;;;84.57;40.85;;;;;;;;;;1035181;28;20018;-75
2022/12/03 01:44:23;;;;;;;85.10;40.08;;;;;;;;;;1035772;28;20107;-74
2022/12/03 01:44:55;;;;;;;102.13;42.58;;;;;;;;;;1038619;28;20500;-74
2022/12/03 01:45:26;;;;;;;76.80;43.45;;;;;;;;;;1038346;28;20035;-74
2022/12/03 01:45:56;;;;;;;85.70;44.60;;;;;;;;;;1040894;28;20044;-74
2022/12/03 01:46:32;;;;;;;104.03;46.15;;;;;;;;;;1041923;28;20029;-74
2022/12/03 01:47:05;;;;;;;93.97;46.47;;;;;;;;;;1040219;28;20116;-76
2022/12/03 01:47:37;;;;;;;109.65;49.33;;;;;;;;;;1038506;28;20112;-76
2022/12/03 01:48:10;;;;;;;107.35;46.45;;;;;;;;;;1038283;28;20025;-75
2022/12/03 01:48:40;;;;;;;101.70;47.75;;;;;;;;;;1040222;28;20501;-76
2022/12/03 01:49:16;;;;;;;95.15;44.22;;;;;;;;;;1040396;28;20021;-76
2022/12/03 01:49:53;;;;;;;109.45;47.67;;;;;;;;;;1041272;28;20041;-76
2022/12/03 01:50:28;;;;;;;94.88;45.70;;;;;;;;;;1036532;28;20047;-76
2022/12/03 01:50:59;;;;;;;102.35;45.83;;;;;;;;;;1039586;28;20479;-76
2022/12/03 01:51:30;;;;;;;107.70;50.38;;;;;;;;;;1041435;28;20053;-76
2022/12/03 01:52:00;;;;;;;103.57;48.40;;;;;;;;;;1042436;28;20033;-76
2022/12/03 01:52:32;;;;;;;111.47;47.08;;;;;;;;;;1040413;28;20457;-77
2022/12/03 01:53:03;;;;;;;100.90;43.08;;;;;;;;;;1040874;28;20077;-76
2022/12/03 01:53:34;;;;;;;107.88;49.20;;;;;;;;;;1042098;28;20096;-76
2022/12/03 01:54:04;;;;;;;101.47;44.95;;;;;;;;;;1039429;28;20611;-77
2022/12/03 01:54:39;;;;;;;111.22;45.85;;;;;;;;;;1039264;28;20111;-77
2022/12/03 01:55:13;;;;;;;102.43;50.05;;;;;;;;;;1038892;28;20026;-76
2022/12/03 01:55:44;;;;;;;104.75;47.10;;;;;;;;;;1038913;28;20417;-76
2022/12/03 01:56:16;;;;;;;88.97;46.10;;;;;;;;;;1043092;28;20032;-76
2022/12/03 01:56:47;;;;;;;103.85;47.80;;;;;;;;;;1045407;28;20025;-76
2022/12/03 01:57:23;;;;;;;90.75;48.50;;;;;;;;;;1039480;28;20517;-76
2022/12/03 01:57:56;;;;;;;94.32;43.83;;;;;;;;;;1040820;28;20385;-76
2022/12/03 01:58:27;;;;;;;83.32;42.88;;;;;;;;;;1041186;28;20120;-76
2022/12/03 01:58:58;;;;;;;90.57;47.80;;;;;;;;;;1041518;28;20503;-76
2022/12/03 01:59:34;;;;;;;106.47;48.97;;;;;;;;;;1041505;28;20021;-76
2022/12/03 02:00:05;;;;;;;99.63;47.92;;;;;;;;;;1039235;28;20032;-76
2022/12/03 02:00:36;;;;;;;97.53;44.38;;;;;;;;;;1041372;28;20022;-76
2022/12/03 02:01:11;;;;;;;86.03;41.83;;;;;;;;;;1041367;28;20025;-78
2022/12/03 02:01:41;;;;;;;86.47;43.40;;;;;;;;;;1038531;28;20020;-76
2022/12/03 02:02:22;;;;;;;96.68;47.13;;;;;;;;;;1042316;28;20390;-76
2022/12/03 02:02:54;;;;;;;83.97;43.55;;;;;;;;;;1040832;28;20025;-76
2022/12/03 02:03:25;;;;;;;100.07;47.65;;;;;;;;;;1040301;28;20460;-76
2022/12/03 02:03:56;;;;;;;89.78;44.17;;;;;;;;;;1035989;28;20052;-76
2022/12/03 02:04:27;;;;;;;112.65;47.08;;;;;;;;;;1034975;28;20128;-76
2022/12/03 02:04:58;;;;;;;91.07;46.22;;;;;;;;;;1038533;28;20033;-76
2022/12/03 02:05:30;;;;;;;98.82;49.55;;;;;;;;;;1038262;28;20527;-77
2022/12/03 02:06:01;;;;;;;97.28;47.15;;;;;;;;;;1039558;28;20464;-77
2022/12/03 02:06:31;;;;;;;85.05;43.80;;;;;;;;;;1041381;28;20018;-77
2022/12/03 02:07:21;;;;;;;90.30;43.92;;;;;;;;;;1039006;28;20022;-77
2022/12/03 02:07:51;;;;;;;83.53;40.78;;;;;;;;;;1038893;28;20033;-77
2022/12/03 02:08:29;;;;;;;82.93;43.13;;;;;;;;;;1039657;28;20029;-77
2022/12/03 02:09:00;;;;;;;116.32;43.90;;;;;;;;;;1039960;28;20056;-77
2022/12/03 02:09:30;;;;;;;88.90;43.35;;;;;;;;;;1037483;28;20021;-77
2022/12/03 02:10:02;;;;;;;96.78;41.83;;;;;;;;;;1037865;28;20036;-77
2022/12/03 02:10:33;;;;;;;100.38;45.45;;;;;;;;;;1040848;28;20025;-77
2022/12/03 02:11:07;;;;;;;88.63;43.25;;;;;;;;;;1039997;28;20068;-76
2022/12/03 02:11:39;;;;;;;96.38;45.95;;;;;;;;;;1038258;28;20410;-76
2022/12/03 02:12:10;;;;;;;99.30;45.70;;;;;;;;;;1038525;28;20441;-76
2022/12/03 02:12:43;;;;;;;96.05;44.95;;;;;;;;;;1038604;28;20022;-76
2022/12/03 02:13:14;;;;;;;86.72;43.45;;;;;;;;;;1037403;28;20021;-76
2022/12/03 02:13:45;;;;;;;94.30;43.92;;;;;;;;;;1042102;28;20025;-77
2022/12/03 02:14:18;;;;;;;86.97;40.88;;;;;;;;;;1042287;28;20548;-77
2022/12/03 02:14:49;;;;;;;82.82;38.92;;;;;;;;;;1042811;28;20005;-77
2022/12/03 02:15:20;;;;;;;83.60;41.20;;;;;;;;;;1041732;28;20018;-76
2022/12/03 02:15:51;;;;;;;88.72;43.05;;;;;;;;;;1036928;28;20021;-77
2022/12/03 02:16:21;;;;;;;79.68;39.67;;;;;;;;;;1035971;28;20045;-76
2022/12/03 02:16:52;;;;;;;96.88;41.90;;;;;;;;;;1036888;28;20025;-77
2022/12/03 02:17:23;;;;;;;94.25;44.35;;;;;;;;;;1035610;28;20029;-77
2022/12/03 02:17:54;;;;;;;106.78;45.28;;;;;;;;;;1037842;28;20036;-77
2022/12/03 02:18:24;;;;;;;112.78;50.10;;;;;;;;;;1034462;28;21305;-76
2022/12/03 02:18:55;;;;;;;105.80;49.80;;;;;;;;;;1036335;28;20136;-76
2022/12/03 02:19:29;;;;;;;133.32;54.45;;;;;;;;;;1040919;28;20033;-76
2022/12/03 02:20:00;;;;;;;134.63;60.10;;;;;;;;;;1039050;28;20037;-76
2022/12/03 02:20:34;;;;;;;99.50;45.58;;;;;;;;;;1038138;28;20053;-76
2022/12/03 02:21:17;;;;;;;124.55;52.55;;;;;;;;;;1035402;28;20444;-76
2022/12/03 02:22:03;;;;;;;121.78;54.20;;;;;;;;;;1039171;28;20087;-76
2022/12/03 02:22:57;;;;;;;87.43;43.55;;;;;;;;;;1040824;28;20168;-76
2022/12/03 02:23:36;;;;;;;98.07;44.03;;;;;;;;;;1032987;28;20077;-76
2022/12/03 02:24:14;;;;;;;108.50;44.78;;;;;;;;;;1039185;28;20033;-76
2022/12/03 02:25:07;;;;;;;107.03;47.22;;;;;;;;;;1041009;28;20026;-76
2022/12/03 02:25:38;;;;;;;114.80;51.92;;;;;;;;;;1034639;28;20023;-76
2022/12/03 02:26:09;;;;;;;122.75;52.08;;;;;;;;;;1039968;28;20024;-76
2022/12/03 02:26:39;;;;;;;135.07;53.95;;;;;;;;;;1041026;28;20033;-76
2022/12/03 02:27:10;;;;;;;130.10;61.33;;;;;;;;;;1040776;28;20476;-76
2022/12/03 02:27:41;;;;;;;119.28;49.90;;;;;;;;;;1041191;28;20025;-76
2022/12/03 02:28:12;;;;;;;120.22;53.80;;;;;;;;;;1042189;28;20021;-76
2022/12/03 02:28:43;;;;;;;115.45;52.22;;;;;;;;;;1037489;28;20022;-76
2022/12/03 02:29:13;;;;;;;122.82;57.60;;;;;;;;;;1040347;28;20100;-76
2022/12/03 02:29:44;;;;;;;119.35;53.58;;;;;;;;;;1042330;28;20043;-76
2022/12/03 02:30:18;;;;;;;126.65;56.45;;;;;;;;;;1040338;28;20021;-76
2022/12/03 02:30:48;;;;;;;125.90;57.10;;;;;;;;;;1035193;28;20471;-76
2022/12/03 02:31:19;;;;;;;123.38;52.90;;;;;;;;;;1037653;28;20093;-76
2022/12/03 02:31:49;;;;;;;117.47;55.13;;;;;;;;;;1033349;28;20022;-76
2022/12/03 02:32:22;;;;;;;120.40;54.67;;;;;;;;;;1037690;28;20026;-76
2022/12/03 02:32:53;;;;;;;124.45;57.42;;;;;;;;;;1039036;28;20068;-76
2022/12/03 02:33:24;;;;;;;131.07;56.90;;;;;;;;;;1038559;28;20431;-76
2022/12/03 02:33:54;;;;;;;122.43;55.35;;;;;;;;;;1038056;28;21208;-76
2022/12/03 02:34:35;;;;;;;116.97;55.10;;;;;;;;;;1032599;28;20116;-76
2022/12/03 02:35:12;;;;;;;132.07;56.72;;;;;;;;;;1035345;28;20080;-77
2022/12/03 02:35:43;;;;;;;129.50;56.92;;;;;;;;;;1034597;28;20053;-77
2022/12/03 02:36:13;;;;;;;119.97;55.75;;;;;;;;;;1036532;28;20018;-77
2022/12/03 02:36:44;;;;;;;123.85;54.88;;;;;;;;;;1039018;28;20033;-77
2022/12/03 02:37:16;;;;;;;135.90;57.20;;;;;;;;;;1037213;28;20022;-77
2022/12/03 02:37:49;;;;;;;126.60;56.50;;;;;;;;;;1041648;28;20033;-77
2022/12/03 02:38:21;;;;;;;125.93;60.38;;;;;;;;;;1038552;28;20047;-77
2022/12/03 02:38:52;;;;;;;135.88;59.17;;;;;;;;;;1040321;28;20029;-77
2022/12/03 02:39:23;;;;;;;126.38;57.30;;;;;;;;;;1041654;28;20025;-77
2022/12/03 02:39:55;;;;;;;130.38;58.53;;;;;;;;;;1041903;28;20032;-77
2022/12/03 02:40:27;;;;;;;124.00;59.65;;;;;;;;;;1041660;28;20029;-77
2022/12/03 02:41:01;;;;;;;121.75;57.45;;;;;;;;;;1041286;28;20025;-77
2022/12/03 02:42:33;;;;;;;129.25;55.85;;;;;;;;;;1040437;28;20029;-76
2022/12/03 02:43:05;;;;;;;121.90;54.72;;;;;;;;;;1040772;28;20021;-76
2022/12/03 02:43:35;;;;;;;119.93;53.72;;;;;;;;;;1040511;28;20064;-77
2022/12/03 02:44:07;;;;;;;121.93;53.70;;;;;;;;;;1039209;28;20029;-77
2022/12/03 02:44:37;;;;;;;124.45;58.30;;;;;;;;;;1037054;28;20034;-77
2022/12/03 02:45:11;;;;;;;130.15;56.22;;;;;;;;;;1037449;28;20470;-76
2022/12/03 02:45:43;;;;;;;131.05;58.95;;;;;;;;;;1037488;28;20029;-77
2022/12/03 02:46:14;;;;;;;109.28;53.33;;;;;;;;;;1037295;28;20025;-76
2022/12/03 02:46:44;;;;;;;116.18;58.15;;;;;;;;;;1035223;28;20046;-76
2022/12/03 02:47:15;;;;;;;126.85;56.30;;;;;;;;;;1037512;28;20026;-77
2022/12/03 02:47:48;;;;;;;118.45;55.50;;;;;;;;;;1036085;28;20026;-77
2022/12/03 02:48:22;;;;;;;128.93;57.35;;;;;;;;;;1039678;28;20021;-77
2022/12/03 02:48:53;;;;;;;123.18;56.45;;;;;;;;;;1038056;28;20025;-77
2022/12/03 02:49:23;;;;;;;130.70;61.70;;;;;;;;;;1038046;28;20856;-77
2022/12/03 02:49:54;;;;;;;124.93;59.17;;;;;;;;;;1040267;28;20021;-77
2022/12/03 02:50:31;;;;;;;125.68;60.28;;;;;;;;;;1038272;28;20037;-77
2022/12/03 02:51:07;;;;;;;123.25;57.65;;;;;;;;;;1041887;28;20013;-77
2022/12/03 02:51:38;;;;;;;100.45;49.75;;;;;;;;;;1037084;28;20034;-77
2022/12/03 02:52:09;;;;;;;126.70;57.25;;;;;;;;;;1034002;28;20033;-77
2022/12/03 02:52:41;;;;;;;116.90;55.63;;;;;;;;;;1034271;28;20045;-77
2022/12/03 02:53:14;;;;;;;131.27;58.85;;;;;;;;;;1033752;28;20026;-77
2022/12/03 02:53:46;;;;;;;122.88;60.45;;;;;;;;;;1039679;28;20029;-77
2022/12/03 02:54:16;;;;;;;136.48;60.10;;;;;;;;;;1043887;28;20016;-77
2022/12/03 02:54:49;;;;;;;158.10;63.55;;;;;;;;;;1040346;28;20037;-77
2022/12/03 02:55:21;;;;;;;133.07;60.65;;;;;;;;;;1041294;28;20021;-77
2022/12/03 02:55:53;;;;;;;133.95;60.95;;;;;;;;;;1037809;28;20162;-77
2022/12/03 02:56:26;;;;;;;126.53;60.30;;;;;;;;;;1034843;28;20056;-77
2022/12/03 02:56:57;;;;;;;140.98;63.28;;;;;;;;;;1035734;28;20056;-77
2022/12/03 02:57:28;;;;;;;142.70;61.38;;;;;;;;;;1032146;28;20096;-77
2022/12/03 02:58:00;;;;;;;143.80;65.35;;;;;;;;;;1036156;28;20033;-77
2022/12/03 02:58:31;;;;;;;138.60;69.50;;;;;;;;;;1039964;28;20029;-77
2022/12/03 02:59:04;;;;;;;147.38;66.72;;;;;;;;;;1037776;28;20037;-77
2022/12/03 02:59:38;;;;;;;127.75;61.30;;;;;;;;;;1038673;28;20025;-77
2022/12/03 03:00:09;;;;;;;141.80;65.60;;;;;;;;;;1034846;28;20377;-77
2022/12/03 03:00:41;;;;;;;125.15;61.85;;;;;;;;;;1036444;28;20147;-77
2022/12/03 03:01:13;;;;;;;130.57;59.17;;;;;;;;;;1034876;28;20026;-77
2022/12/03 03:01:43;;;;;;;132.77;63.67;;;;;;;;;;1038671;28;20032;-77
2022/12/03 03:02:14;;;;;;;144.93;61.78;;;;;;;;;;1037548;28;20021;-77
2022/12/03 03:02:45;;;;;;;126.75;59.60;;;;;;;;;;1034903;28;20397;-77
2022/12/03 03:03:17;;;;;;;121.10;59.75;;;;;;;;;;1034921;28;20128;-74
2022/12/03 03:03:49;;;;;;;123.28;57.03;;;;;;;;;;1030509;28;20096;-76
2022/12/03 03:04:19;;;;;;;121.95;58.85;;;;;;;;;;1036174;28;20040;-76